createdAt,value
2016-07-06T00:00:16.128Z,23.36
2016-07-06T00:01:16.292Z,23.36
2016-07-06T00:02:16.185Z,23.36
2016-07-06T00:03:16.128Z,23.38
2016-07-06T00:04:17.870Z,23.33
2016-07-06T00:05:16.775Z,23.35
2016-07-06T00:06:16.765Z,23.38
2016-07-06T00:07:16.784Z,23.38
2016-07-06T00:08:16.177Z,23.4
2016-07-06T00:09:16.796Z,23.33
2016-07-06T00:10:16.798Z,23.35
2016-07-06T00:11:16.810Z,23.39
2016-07-06T00:12:15.585Z,23.33
2016-07-06T00:13:16.192Z,23.35
2016-07-06T00:14:16.214Z,23.35
2016-07-06T00:15:16.914Z,23.32
2016-07-06T00:16:15.621Z,23.23
2016-07-06T00:17:15.813Z,23.28
2016-07-06T00:18:16.847Z,23.36
2016-07-06T00:19:17.394Z,23.33
2016-07-06T00:20:16.851Z,23.32
2016-07-06T00:21:15.644Z,23.31
2016-07-06T00:22:15.645Z,23.35
2016-07-06T00:23:16.260Z,23.32
2016-07-06T00:24:16.880Z,23.28
2016-07-06T00:25:16.877Z,23.38
2016-07-06T00:26:16.419Z,23.33
2016-07-06T00:27:16.272Z,23.27
2016-07-06T00:28:16.281Z,23.35
2016-07-06T00:29:16.287Z,23.36
2016-07-06T00:30:16.995Z,23.36
2016-07-06T00:31:15.690Z,23.32
2016-07-06T00:32:16.924Z,23.32
2016-07-06T00:33:15.704Z,23.31
2016-07-06T00:34:16.307Z,23.35
2016-07-06T00:35:16.322Z,23.32
2016-07-06T00:36:16.332Z,23.32
2016-07-06T00:37:16.340Z,23.32
2016-07-06T00:38:16.360Z,23.31
2016-07-06T00:39:15.732Z,23.23
2016-07-06T00:40:15.745Z,23.28
2016-07-06T00:41:17.318Z,23.36
2016-07-06T00:42:16.373Z,23.2
2016-07-06T00:43:16.373Z,23.27
2016-07-06T00:44:16.990Z,23.31
2016-07-06T00:45:15.768Z,23.28
2016-07-06T00:46:17.006Z,23.32
2016-07-06T00:47:15.783Z,23.22
2016-07-06T00:48:15.789Z,23.32
2016-07-06T00:49:16.409Z,23.19
2016-07-06T00:50:17.268Z,23.23
2016-07-06T00:51:16.418Z,23.15
2016-07-06T00:52:16.061Z,23.27
2016-07-06T00:53:17.025Z,23.27
2016-07-06T00:54:16.420Z,23.19
2016-07-06T00:55:17.057Z,23.23
2016-07-06T00:56:16.448Z,23.16
2016-07-06T00:57:16.468Z,23.16
2016-07-06T00:58:15.842Z,23.22
2016-07-06T00:59:17.132Z,23.27
2016-07-06T01:00:16.475Z,23.19
2016-07-06T01:01:16.937Z,23.22
2016-07-06T01:02:16.482Z,23.22
2016-07-06T01:03:16.546Z,23.12
2016-07-06T01:04:16.489Z,23.15
2016-07-06T01:05:15.886Z,23.19
2016-07-06T01:06:16.504Z,23.23
2016-07-06T01:07:16.508Z,23.2
2016-07-06T01:08:15.895Z,23.19
2016-07-06T01:09:17.318Z,23.2
2016-07-06T01:10:17.194Z,23.23
2016-07-06T01:11:16.589Z,23.16
2016-07-06T01:12:16.728Z,23.22
2016-07-06T01:13:16.546Z,23.13
2016-07-06T01:14:18.242Z,23.2
2016-07-06T01:15:16.549Z,23.13
2016-07-06T01:16:17.171Z,23.13
2016-07-06T01:17:16.563Z,23.12
2016-07-06T01:18:16.553Z,23.17
2016-07-06T01:19:15.945Z,23.17
2016-07-06T01:20:15.972Z,23.17
2016-07-06T01:21:16.570Z,23.13
2016-07-06T01:22:16.590Z,23.15
2016-07-06T01:23:16.593Z,23.15
2016-07-06T01:24:16.581Z,23.17
2016-07-06T01:25:17.848Z,23.17
2016-07-06T01:26:16.612Z,23.16
2016-07-06T01:27:16.611Z,23.22
2016-07-06T01:28:17.241Z,23.2
2016-07-06T01:29:17.230Z,23.25
2016-07-06T01:30:17.226Z,23.2
2016-07-06T01:31:17.237Z,23.2
2016-07-06T01:32:16.639Z,23.17
2016-07-06T01:33:16.633Z,23.2
2016-07-06T01:34:17.783Z,23.2
2016-07-06T01:35:16.048Z,23.17
2016-07-06T01:36:17.314Z,23.16
2016-07-06T01:37:16.672Z,23.25
2016-07-06T01:38:17.293Z,23.22
2016-07-06T01:39:17.302Z,23.2
2016-07-06T01:40:16.072Z,23.23
2016-07-06T01:41:17.307Z,23.19
2016-07-06T01:42:16.706Z,23.19
2016-07-06T01:43:17.320Z,23.22
2016-07-06T01:44:17.321Z,23.13
2016-07-06T01:45:17.981Z,23.22
2016-07-06T01:46:16.716Z,23.2
2016-07-06T01:47:16.939Z,23.19
2016-07-06T01:48:17.350Z,23.12
2016-07-06T01:49:17.352Z,23.2
2016-07-06T01:50:16.744Z,23.16
2016-07-06T01:51:16.755Z,23.15
2016-07-06T01:52:17.373Z,23.15
2016-07-06T01:53:16.751Z,23.17
2016-07-06T01:54:16.768Z,23.15
2016-07-06T01:55:16.759Z,23.16
2016-07-06T01:56:16.870Z,23.25
2016-07-06T01:57:16.801Z,23.19
2016-07-06T01:58:16.786Z,23.25
2016-07-06T01:59:17.403Z,23.25
2016-07-06T02:00:16.803Z,23.2
2016-07-06T02:01:17.535Z,23.17
2016-07-06T02:02:17.429Z,23.16
2016-07-06T02:03:17.479Z,23.22
2016-07-06T02:04:17.434Z,23.22
2016-07-06T02:05:16.829Z,23.22
2016-07-06T02:06:16.848Z,23.16
2016-07-06T02:07:16.334Z,23.19
2016-07-06T02:08:16.848Z,23.22
2016-07-06T02:09:18.144Z,23.13
2016-07-06T02:10:17.473Z,23.17
2016-07-06T02:11:16.846Z,23.16
2016-07-06T02:12:17.478Z,23.17
2016-07-06T02:13:16.863Z,23.12
2016-07-06T02:14:17.487Z,23.13
2016-07-06T02:15:16.275Z,23.09
2016-07-06T02:16:17.497Z,23.16
2016-07-06T02:17:16.288Z,23.15
2016-07-06T02:18:16.905Z,23.15
2016-07-06T02:19:16.906Z,23.15
2016-07-06T02:20:18.532Z,23.15
2016-07-06T02:21:17.539Z,23.19
2016-07-06T02:22:16.313Z,23.16
2016-07-06T02:23:17.544Z,23.17
2016-07-06T02:24:16.934Z,23.19
2016-07-06T02:25:16.939Z,23.17
2016-07-06T02:26:17.562Z,23.07
2016-07-06T02:27:16.962Z,23.05
2016-07-06T02:28:17.575Z,23.12
2016-07-06T02:29:16.964Z,23.17
2016-07-06T02:30:16.356Z,23.19
2016-07-06T02:31:17.617Z,23.13
2016-07-06T02:32:16.971Z,23.16
2016-07-06T02:33:17.589Z,23.07
2016-07-06T02:34:16.989Z,23.04
2016-07-06T02:35:16.984Z,23.15
2016-07-06T02:36:16.993Z,23.12
2016-07-06T02:37:17.617Z,23.02
2016-07-06T02:38:16.399Z,23
2016-07-06T02:39:17.627Z,23.04
2016-07-06T02:40:18.642Z,23.13
2016-07-06T02:41:17.655Z,23.13
2016-07-06T02:42:18.081Z,23.05
2016-07-06T02:43:17.650Z,23.07
2016-07-06T02:44:17.043Z,23.12
2016-07-06T02:45:17.657Z,23
2016-07-06T02:46:17.044Z,23.07
2016-07-06T02:47:17.040Z,23.02
2016-07-06T02:48:17.658Z,23.15
2016-07-06T02:49:17.071Z,23.16
2016-07-06T02:50:17.059Z,23.07
2016-07-06T02:51:18.799Z,23.01
2016-07-06T02:52:17.711Z,23.07
2016-07-06T02:53:17.862Z,23.02
2016-07-06T02:54:17.711Z,23.1
2016-07-06T02:55:17.100Z,22.98
2016-07-06T02:56:17.109Z,23.1
2016-07-06T02:57:17.115Z,23.1
2016-07-06T02:58:17.124Z,23.02
2016-07-06T02:59:17.122Z,23.09
2016-07-06T03:00:16.515Z,23.13
2016-07-06T03:01:17.181Z,23.07
2016-07-06T03:02:18.801Z,23.1
2016-07-06T03:03:16.586Z,23.02
2016-07-06T03:04:17.150Z,23.02
2016-07-06T03:05:17.157Z,23
2016-07-06T03:06:17.774Z,23.01
2016-07-06T03:07:17.777Z,22.98
2016-07-06T03:08:17.173Z,23.01
2016-07-06T03:09:17.170Z,23.01
2016-07-06T03:10:17.183Z,23.07
2016-07-06T03:11:17.804Z,23.05
2016-07-06T03:12:16.566Z,23.07
2016-07-06T03:13:18.290Z,22.95
2016-07-06T03:14:17.818Z,23
2016-07-06T03:15:16.735Z,23.07
2016-07-06T03:16:16.592Z,23
2016-07-06T03:17:17.201Z,23.01
2016-07-06T03:18:17.821Z,23.09
2016-07-06T03:19:17.829Z,22.94
2016-07-06T03:20:17.832Z,22.98
2016-07-06T03:21:16.611Z,23.01
2016-07-06T03:22:17.866Z,23.02
2016-07-06T03:23:17.253Z,23.04
2016-07-06T03:24:31.500Z,22.95
2016-07-06T03:25:16.631Z,22.95
2016-07-06T03:26:17.270Z,23
2016-07-06T03:27:16.660Z,23.09
2016-07-06T03:28:17.282Z,22.97
2016-07-06T03:29:17.907Z,22.94
2016-07-06T03:30:17.291Z,23.04
2016-07-06T03:31:16.685Z,22.95
2016-07-06T03:32:17.306Z,22.95
2016-07-06T03:33:17.311Z,23.04
2016-07-06T03:34:17.319Z,23.04
2016-07-06T03:35:18.334Z,22.95
2016-07-06T03:36:17.939Z,23
2016-07-06T03:37:17.931Z,22.94
2016-07-06T03:38:17.944Z,22.97
2016-07-06T03:39:17.341Z,22.97
2016-07-06T03:40:17.348Z,22.86
2016-07-06T03:41:17.344Z,22.95
2016-07-06T03:42:17.357Z,22.94
2016-07-06T03:43:17.349Z,22.98
2016-07-06T03:44:17.366Z,22.95
2016-07-06T03:45:17.977Z,22.86
2016-07-06T03:46:17.868Z,22.94
2016-07-06T03:47:17.375Z,22.91
2016-07-06T03:48:17.384Z,23.01
2016-07-06T03:49:17.382Z,22.88
2016-07-06T03:50:17.378Z,22.91
2016-07-06T03:51:17.996Z,23
2016-07-06T03:52:16.794Z,22.95
2016-07-06T03:53:17.421Z,22.94
2016-07-06T03:54:17.416Z,22.91
2016-07-06T03:55:17.427Z,22.86
2016-07-06T03:56:16.819Z,22.91
2016-07-06T03:57:17.582Z,22.86
2016-07-06T03:58:17.430Z,22.88
2016-07-06T03:59:17.433Z,22.82
2016-07-06T04:00:17.443Z,22.88
2016-07-06T04:01:17.457Z,22.88
2016-07-06T04:02:17.442Z,22.88
2016-07-06T04:03:17.460Z,22.85
2016-07-06T04:04:17.475Z,22.83
2016-07-06T04:05:16.868Z,22.91
2016-07-06T04:06:17.486Z,22.91
2016-07-06T04:07:18.143Z,22.91
2016-07-06T04:08:18.108Z,22.86
2016-07-06T04:09:18.105Z,22.97
2016-07-06T04:10:17.501Z,22.85
2016-07-06T04:11:16.892Z,22.94
2016-07-06T04:12:18.118Z,22.95
2016-07-06T04:13:17.519Z,22.9
2016-07-06T04:14:16.907Z,22.92
2016-07-06T04:15:17.527Z,22.88
2016-07-06T04:16:17.535Z,22.88
2016-07-06T04:17:18.150Z,22.88
2016-07-06T04:18:17.538Z,22.91
2016-07-06T04:19:17.699Z,22.95
2016-07-06T04:20:17.552Z,22.95
2016-07-06T04:21:17.551Z,22.94
2016-07-06T04:22:18.179Z,22.94
2016-07-06T04:23:17.584Z,22.92
2016-07-06T04:24:32.431Z,22.86
2016-07-06T04:25:18.199Z,22.91
2016-07-06T04:26:17.600Z,22.94
2016-07-06T04:27:17.584Z,22.92
2016-07-06T04:28:17.588Z,22.88
2016-07-06T04:29:18.196Z,22.91
2016-07-06T04:30:17.591Z,22.92
2016-07-06T04:31:17.602Z,22.9
2016-07-06T04:32:19.303Z,22.91
2016-07-06T04:33:17.009Z,22.91
2016-07-06T04:34:17.617Z,22.95
2016-07-06T04:35:17.638Z,22.94
2016-07-06T04:36:17.626Z,22.92
2016-07-06T04:37:17.029Z,22.88
2016-07-06T04:38:17.036Z,22.85
2016-07-06T04:39:18.265Z,22.97
2016-07-06T04:40:17.646Z,22.92
2016-07-06T04:41:17.646Z,22.97
2016-07-06T04:42:17.673Z,22.94
2016-07-06T04:43:17.063Z,22.91
2016-07-06T04:44:18.291Z,22.94
2016-07-06T04:45:18.305Z,22.8
2016-07-06T04:46:18.315Z,22.86
2016-07-06T04:47:17.696Z,22.9
2016-07-06T04:48:17.702Z,22.9
2016-07-06T04:49:17.710Z,22.91
2016-07-06T04:50:17.702Z,22.91
2016-07-06T04:51:17.723Z,22.97
2016-07-06T04:52:17.719Z,22.9
2016-07-06T04:53:17.720Z,23.01
2016-07-06T04:54:19.037Z,22.91
2016-07-06T04:55:17.131Z,22.92
2016-07-06T04:56:17.748Z,22.88
2016-07-06T04:57:18.366Z,22.86
2016-07-06T04:58:17.757Z,22.95
2016-07-06T04:59:17.139Z,23.01
2016-07-06T05:00:17.772Z,23.02
2016-07-06T05:01:17.161Z,23.04
2016-07-06T05:02:17.778Z,23.02
2016-07-06T05:03:19.324Z,23.04
2016-07-06T05:04:18.451Z,23
2016-07-06T05:05:18.988Z,23.09
2016-07-06T05:06:17.799Z,23.02
2016-07-06T05:07:17.192Z,23.02
2016-07-06T05:08:17.810Z,23.02
2016-07-06T05:09:18.437Z,23.07
2016-07-06T05:10:17.974Z,23.16
2016-07-06T05:11:18.450Z,23.16
2016-07-06T05:12:18.449Z,23.15
2016-07-06T05:13:17.826Z,23.15
2016-07-06T05:14:17.855Z,23.17
2016-07-06T05:15:17.860Z,23.19
2016-07-06T05:16:19.578Z,23.33
2016-07-06T05:17:17.869Z,23.25
2016-07-06T05:18:17.875Z,23.42
2016-07-06T05:19:18.493Z,23.46
2016-07-06T05:20:17.285Z,23.35
2016-07-06T05:21:18.514Z,23.4
2016-07-06T05:22:18.507Z,23.39
2016-07-06T05:23:18.525Z,23.42
2016-07-06T05:24:17.300Z,23.54
2016-07-06T05:25:17.920Z,23.57
2016-07-06T05:26:18.543Z,23.63
2016-07-06T05:27:19.598Z,23.61
2016-07-06T05:28:17.330Z,23.66
2016-07-06T05:29:17.945Z,23.65
2016-07-06T05:30:17.952Z,23.69
2016-07-06T05:31:17.347Z,23.78
2016-07-06T05:32:18.583Z,23.79
2016-07-06T05:33:17.971Z,23.95
2016-07-06T05:34:18.592Z,23.98
2016-07-06T05:35:17.996Z,24.05
2016-07-06T05:36:17.991Z,24.06
2016-07-06T05:37:18.008Z,24
2016-07-06T05:38:19.165Z,24.03
2016-07-06T05:39:18.632Z,24.09
2016-07-06T05:40:18.032Z,24.03
2016-07-06T05:41:18.032Z,24.03
2016-07-06T05:42:18.043Z,24.16
2016-07-06T05:43:18.059Z,24.21
2016-07-06T05:44:17.444Z,24.24
2016-07-06T05:45:18.682Z,24.27
2016-07-06T05:46:18.084Z,24.3
2016-07-06T05:47:19.628Z,24.3
2016-07-06T05:48:18.093Z,24.34
2016-07-06T05:49:19.384Z,24.35
2016-07-06T05:50:18.731Z,24.35
2016-07-06T05:51:17.508Z,24.37
2016-07-06T05:52:18.743Z,24.5
2016-07-06T05:53:18.754Z,24.45
2016-07-06T05:54:17.536Z,24.53
2016-07-06T05:55:17.552Z,24.5
2016-07-06T05:56:18.777Z,24.52
2016-07-06T05:57:18.790Z,24.53
2016-07-06T05:58:18.182Z,24.65
2016-07-06T05:59:18.177Z,24.67
2016-07-06T06:00:19.767Z,24.64
2016-07-06T06:01:18.821Z,24.69
2016-07-06T06:02:17.601Z,24.73
2016-07-06T06:03:18.278Z,24.73
2016-07-06T06:04:18.847Z,24.81
2016-07-06T06:05:18.246Z,24.84
2016-07-06T06:06:17.642Z,24.85
2016-07-06T06:07:18.878Z,24.85
2016-07-06T06:08:18.273Z,24.85
2016-07-06T06:09:17.676Z,24.95
2016-07-06T06:10:18.905Z,24.93
2016-07-06T06:11:19.103Z,24.91
2016-07-06T06:12:18.305Z,24.88
2016-07-06T06:13:18.322Z,24.9
2016-07-06T06:14:18.334Z,24.95
2016-07-06T06:15:18.337Z,25
2016-07-06T06:16:18.344Z,24.95
2016-07-06T06:17:18.971Z,24.98
2016-07-06T06:18:18.363Z,25.05
2016-07-06T06:19:18.991Z,25.09
2016-07-06T06:20:20.101Z,25.09
2016-07-06T06:21:19.009Z,25.03
2016-07-06T06:22:19.662Z,25.08
2016-07-06T06:23:18.407Z,25.17
2016-07-06T06:24:18.420Z,25.08
2016-07-06T06:25:18.430Z,25.03
2016-07-06T06:26:17.830Z,25.09
2016-07-06T06:27:19.066Z,25.06
2016-07-06T06:28:18.466Z,25.1
2016-07-06T06:29:18.476Z,25.1
2016-07-06T06:30:18.479Z,24.98
2016-07-06T06:31:20.234Z,24.85
2016-07-06T06:32:19.117Z,24.71
2016-07-06T06:33:19.244Z,24.65
2016-07-06T06:34:18.507Z,24.76
2016-07-06T06:35:18.512Z,24.8
2016-07-06T06:36:18.527Z,24.84
2016-07-06T06:37:17.928Z,24.93
2016-07-06T06:38:19.155Z,24.71
2016-07-06T06:39:18.555Z,24.73
2016-07-06T06:40:18.563Z,24.65
2016-07-06T06:41:17.957Z,24.71
2016-07-06T06:42:17.972Z,24.78
2016-07-06T06:43:19.200Z,24.73
2016-07-06T06:44:19.615Z,24.85
2016-07-06T06:45:19.216Z,24.91
2016-07-06T06:46:19.230Z,24.88
2016-07-06T06:47:18.625Z,24.62
2016-07-06T06:48:19.243Z,24.58
2016-07-06T06:49:18.641Z,24.61
2016-07-06T06:50:19.241Z,24.71
2016-07-06T06:51:18.034Z,24.88
2016-07-06T06:52:18.649Z,25.02
2016-07-06T06:53:19.637Z,25
2016-07-06T06:54:19.289Z,25.06
2016-07-06T06:55:19.531Z,25.21
2016-07-06T06:56:18.689Z,25.18
2016-07-06T06:57:18.688Z,25.21
2016-07-06T06:58:18.707Z,25.17
2016-07-06T06:59:18.716Z,25.08
2016-07-06T07:00:18.113Z,24.99
2016-07-06T07:01:18.726Z,24.99
2016-07-06T07:02:19.340Z,24.99
2016-07-06T07:03:19.420Z,24.96
2016-07-06T07:04:19.747Z,25.1
2016-07-06T07:05:18.764Z,25.03
2016-07-06T07:06:20.037Z,25.14
2016-07-06T07:07:19.396Z,25.05
2016-07-06T07:08:18.793Z,24.9
2016-07-06T07:09:18.804Z,24.84
2016-07-06T07:10:18.187Z,24.69
2016-07-06T07:11:18.860Z,24.62
2016-07-06T07:12:18.804Z,24.68
2016-07-06T07:13:18.825Z,24.76
2016-07-06T07:14:19.441Z,24.73
2016-07-06T07:15:19.778Z,24.83
2016-07-06T07:16:19.469Z,24.85
2016-07-06T07:17:20.025Z,24.91
2016-07-06T07:18:18.868Z,25.14
2016-07-06T07:19:18.878Z,25.38
2016-07-06T07:20:18.890Z,25.43
2016-07-06T07:21:18.897Z,25.45
2016-07-06T07:22:19.517Z,25.52
2016-07-06T07:23:18.299Z,25.6
2016-07-06T07:24:33.157Z,25.64
2016-07-06T07:25:18.327Z,25.69
2016-07-06T07:26:20.395Z,25.64
2016-07-06T07:27:18.950Z,25.69
2016-07-06T07:28:19.399Z,25.61
2016-07-06T07:29:19.580Z,25.65
2016-07-06T07:30:18.367Z,25.58
2016-07-06T07:31:18.373Z,25.67
2016-07-06T07:32:19.616Z,25.67
2016-07-06T07:33:19.013Z,25.73
2016-07-06T07:34:19.631Z,25.69
2016-07-06T07:35:19.027Z,25.55
2016-07-06T07:36:19.042Z,25.24
2016-07-06T07:37:19.820Z,25.23
2016-07-06T07:38:19.661Z,25.28
2016-07-06T07:39:20.065Z,25.15
2016-07-06T07:40:19.687Z,25.05
2016-07-06T07:41:19.083Z,25.18
2016-07-06T07:42:19.090Z,25.4
2016-07-06T07:43:19.713Z,25.46
2016-07-06T07:44:19.114Z,25.64
2016-07-06T07:45:19.117Z,25.4
2016-07-06T07:46:19.724Z,25.28
2016-07-06T07:47:19.136Z,25.24
2016-07-06T07:48:18.534Z,25.43
2016-07-06T07:49:19.154Z,25.54
2016-07-06T07:50:20.179Z,25.46
2016-07-06T07:51:19.169Z,25.52
2016-07-06T07:52:19.182Z,25.58
2016-07-06T07:53:19.799Z,25.6
2016-07-06T07:54:20.086Z,25.6
2016-07-06T07:55:19.196Z,25.54
2016-07-06T07:56:19.207Z,25.39
2016-07-06T07:57:19.825Z,25.23
2016-07-06T07:58:19.831Z,25.1
2016-07-06T07:59:20.783Z,25.15
2016-07-06T08:00:19.228Z,25.2
2016-07-06T08:01:19.741Z,25.1
2016-07-06T08:02:19.860Z,25.21
2016-07-06T08:03:19.257Z,25.18
2016-07-06T08:04:19.268Z,25.13
2016-07-06T08:05:19.387Z,25.18
2016-07-06T08:06:18.674Z,25.17
2016-07-06T08:07:19.895Z,25.08
2016-07-06T08:08:19.294Z,25.09
2016-07-06T08:09:19.044Z,24.98
2016-07-06T08:10:19.953Z,24.95
2016-07-06T08:11:19.308Z,24.95
2016-07-06T08:12:19.499Z,24.91
2016-07-06T08:13:19.929Z,25
2016-07-06T08:14:19.377Z,24.93
2016-07-06T08:15:18.718Z,24.93
2016-07-06T08:16:19.337Z,24.85
2016-07-06T08:17:19.346Z,24.9
2016-07-06T08:18:19.347Z,24.88
2016-07-06T08:19:19.358Z,24.84
2016-07-06T08:20:19.361Z,24.81
2016-07-06T08:21:19.972Z,24.84
2016-07-06T08:22:19.378Z,24.85
2016-07-06T08:23:20.144Z,24.81
2016-07-06T08:24:19.392Z,24.78
2016-07-06T08:25:20.015Z,24.8
2016-07-06T08:26:20.019Z,24.71
2016-07-06T08:27:19.424Z,24.77
2016-07-06T08:28:19.426Z,24.68
2016-07-06T08:29:19.442Z,24.71
2016-07-06T08:30:20.054Z,24.71
2016-07-06T08:31:19.451Z,24.65
2016-07-06T08:32:20.212Z,24.65
2016-07-06T08:33:20.073Z,24.67
2016-07-06T08:34:20.383Z,24.68
2016-07-06T08:35:18.864Z,24.64
2016-07-06T08:36:19.481Z,24.68
2016-07-06T08:37:20.110Z,24.64
2016-07-06T08:38:19.507Z,24.64
2016-07-06T08:39:20.128Z,24.71
2016-07-06T08:40:20.126Z,24.69
2016-07-06T08:41:18.893Z,24.62
2016-07-06T08:42:20.140Z,24.68
2016-07-06T08:43:20.348Z,24.62
2016-07-06T08:44:20.149Z,24.65
2016-07-06T08:45:20.499Z,24.68
2016-07-06T08:46:19.549Z,24.71
2016-07-06T08:47:20.165Z,24.61
2016-07-06T08:48:20.174Z,24.6
2016-07-06T08:49:19.588Z,24.61
2016-07-06T08:50:19.567Z,24.62
2016-07-06T08:51:19.587Z,24.62
2016-07-06T08:52:20.201Z,24.61
2016-07-06T08:53:19.594Z,24.67
2016-07-06T08:54:20.099Z,24.64
2016-07-06T08:55:19.016Z,24.57
2016-07-06T08:56:19.906Z,24.61
2016-07-06T08:57:19.624Z,24.52
2016-07-06T08:58:19.639Z,24.55
2016-07-06T08:59:19.647Z,24.58
2016-07-06T09:00:19.651Z,24.6
2016-07-06T09:01:20.271Z,24.58
2016-07-06T09:02:20.280Z,24.6
2016-07-06T09:03:19.673Z,24.58
2016-07-06T09:04:19.682Z,24.62
2016-07-06T09:05:20.341Z,24.6
2016-07-06T09:06:19.693Z,24.67
2016-07-06T09:07:20.474Z,24.64
2016-07-06T09:08:19.091Z,24.65
2016-07-06T09:09:20.373Z,24.65
2016-07-06T09:10:19.120Z,24.68
2016-07-06T09:11:19.729Z,24.64
2016-07-06T09:12:19.130Z,24.65
2016-07-06T09:13:19.743Z,24.62
2016-07-06T09:14:19.136Z,24.52
2016-07-06T09:15:20.388Z,24.52
2016-07-06T09:16:20.826Z,24.57
2016-07-06T09:17:19.767Z,24.55
2016-07-06T09:18:19.774Z,24.57
2016-07-06T09:19:19.781Z,24.53
2016-07-06T09:20:19.789Z,24.58
2016-07-06T09:21:19.183Z,24.57
2016-07-06T09:22:19.189Z,24.53
2016-07-06T09:23:19.256Z,24.6
2016-07-06T09:24:19.551Z,24.62
2016-07-06T09:25:19.213Z,24.6
2016-07-06T09:26:19.829Z,24.62
2016-07-06T09:27:20.180Z,24.57
2016-07-06T09:28:19.843Z,24.55
2016-07-06T09:29:19.786Z,24.53
2016-07-06T09:30:19.244Z,24.55
2016-07-06T09:31:19.868Z,24.53
2016-07-06T09:32:20.483Z,24.57
2016-07-06T09:33:19.869Z,24.52
2016-07-06T09:34:20.494Z,24.57
2016-07-06T09:35:20.502Z,24.65
2016-07-06T09:36:20.513Z,24.62
2016-07-06T09:37:19.300Z,24.64
2016-07-06T09:38:20.763Z,24.68
2016-07-06T09:39:20.526Z,24.65
2016-07-06T09:40:19.748Z,24.62
2016-07-06T09:41:19.309Z,24.64
2016-07-06T09:42:19.937Z,24.73
2016-07-06T09:43:19.945Z,24.65
2016-07-06T09:44:19.337Z,24.64
2016-07-06T09:45:20.576Z,24.65
2016-07-06T09:46:19.346Z,24.53
2016-07-06T09:47:19.967Z,24.55
2016-07-06T09:48:19.971Z,24.55
2016-07-06T09:49:19.975Z,24.55
2016-07-06T09:50:19.984Z,24.55
2016-07-06T09:51:21.588Z,24.55
2016-07-06T09:52:20.007Z,24.52
2016-07-06T09:53:21.325Z,24.57
2016-07-06T09:54:20.026Z,24.6
2016-07-06T09:55:19.410Z,24.53
2016-07-06T09:56:20.637Z,24.53
2016-07-06T09:57:20.040Z,24.5
2016-07-06T09:58:20.032Z,24.49
2016-07-06T09:59:20.062Z,24.49
2016-07-06T10:00:20.066Z,24.46
2016-07-06T10:01:20.670Z,24.45
2016-07-06T10:02:21.610Z,24.49
2016-07-06T10:03:19.456Z,24.47
2016-07-06T10:04:20.063Z,24.46
2016-07-06T10:05:20.133Z,24.43
2016-07-06T10:06:20.712Z,24.49
2016-07-06T10:07:19.491Z,24.52
2016-07-06T10:08:19.499Z,24.4
2016-07-06T10:09:19.497Z,24.39
2016-07-06T10:10:20.122Z,24.4
2016-07-06T10:11:20.128Z,24.47
2016-07-06T10:12:19.523Z,24.5
2016-07-06T10:13:20.143Z,24.52
2016-07-06T10:14:20.151Z,24.43
2016-07-06T10:15:21.418Z,24.47
2016-07-06T10:16:20.167Z,24.43
2016-07-06T10:17:19.544Z,24.52
2016-07-06T10:18:20.787Z,24.43
2016-07-06T10:19:20.181Z,24.46
2016-07-06T10:20:19.584Z,24.47
2016-07-06T10:21:20.813Z,24.4
2016-07-06T10:22:20.817Z,24.32
2016-07-06T10:23:20.212Z,24.45
2016-07-06T10:24:20.212Z,24.39
2016-07-06T10:25:20.224Z,24.45
2016-07-06T10:26:20.276Z,24.35
2016-07-06T10:27:19.612Z,24.39
2016-07-06T10:28:20.858Z,24.37
2016-07-06T10:29:20.861Z,24.42
2016-07-06T10:30:20.257Z,24.37
2016-07-06T10:31:19.638Z,24.39
2016-07-06T10:32:20.267Z,24.4
2016-07-06T10:33:20.283Z,24.37
2016-07-06T10:34:20.897Z,24.4
2016-07-06T10:35:20.286Z,24.31
2016-07-06T10:36:20.296Z,24.28
2016-07-06T10:37:21.719Z,24.3
2016-07-06T10:38:20.932Z,24.32
2016-07-06T10:39:20.328Z,24.32
2016-07-06T10:40:19.714Z,24.34
2016-07-06T10:41:20.951Z,24.27
2016-07-06T10:42:20.338Z,24.28
2016-07-06T10:43:19.732Z,24.32
2016-07-06T10:44:21.054Z,24.25
2016-07-06T10:45:20.357Z,24.27
2016-07-06T10:46:20.362Z,24.21
2016-07-06T10:47:20.367Z,24.25
2016-07-06T10:48:20.382Z,24.31
2016-07-06T10:49:20.383Z,24.32
2016-07-06T10:50:21.008Z,24.21
2016-07-06T10:51:20.401Z,24.28
2016-07-06T10:52:19.785Z,24.3
2016-07-06T10:53:21.018Z,24.34
2016-07-06T10:54:20.417Z,24.3
2016-07-06T10:55:20.627Z,24.3
2016-07-06T10:56:22.962Z,24.28
2016-07-06T10:57:20.440Z,24.28
2016-07-06T10:58:19.827Z,24.31
2016-07-06T10:59:19.961Z,24.28
2016-07-06T11:00:20.453Z,24.32
2016-07-06T11:01:20.459Z,24.32
2016-07-06T11:02:21.080Z,24.39
2016-07-06T11:03:20.475Z,24.31
2016-07-06T11:04:20.480Z,24.42
2016-07-06T11:05:19.872Z,24.35
2016-07-06T11:06:20.888Z,24.35
2016-07-06T11:07:20.500Z,24.43
2016-07-06T11:08:20.556Z,24.49
2016-07-06T11:09:19.914Z,24.39
2016-07-06T11:10:19.908Z,24.46
2016-07-06T11:11:21.138Z,24.43
2016-07-06T11:12:21.140Z,24.39
2016-07-06T11:13:20.537Z,24.47
2016-07-06T11:14:19.929Z,24.46
2016-07-06T11:15:21.167Z,24.5
2016-07-06T11:16:20.556Z,24.46
2016-07-06T11:17:21.527Z,24.45
2016-07-06T11:18:21.186Z,24.5
2016-07-06T11:19:21.189Z,24.43
2016-07-06T11:20:20.585Z,24.45
2016-07-06T11:21:20.592Z,24.45
2016-07-06T11:22:21.210Z,24.47
2016-07-06T11:23:19.990Z,24.47
2016-07-06T11:24:21.223Z,24.47
2016-07-06T11:25:20.617Z,24.46
2016-07-06T11:26:21.246Z,24.52
2016-07-06T11:27:20.629Z,24.47
2016-07-06T11:28:21.772Z,24.39
2016-07-06T11:29:20.637Z,24.39
2016-07-06T11:30:20.798Z,24.39
2016-07-06T11:31:20.653Z,24.37
2016-07-06T11:32:20.025Z,24.35
2016-07-06T11:33:20.657Z,24.3
2016-07-06T11:34:20.661Z,24.37
2016-07-06T11:35:20.055Z,24.4
2016-07-06T11:36:20.667Z,24.39
2016-07-06T11:37:20.688Z,24.42
2016-07-06T11:38:20.083Z,24.35
2016-07-06T11:39:21.859Z,24.34
2016-07-06T11:40:20.696Z,24.43
2016-07-06T11:41:20.851Z,24.42
2016-07-06T11:42:20.108Z,24.34
2016-07-06T11:43:20.725Z,24.37
2016-07-06T11:44:20.114Z,24.34
2016-07-06T11:45:21.351Z,24.35
2016-07-06T11:46:20.116Z,24.32
2016-07-06T11:47:20.737Z,24.4
2016-07-06T11:48:21.361Z,24.39
2016-07-06T11:49:20.751Z,24.43
2016-07-06T11:50:21.921Z,24.39
2016-07-06T11:51:21.380Z,24.31
2016-07-06T11:52:20.972Z,24.35
2016-07-06T11:53:21.386Z,24.42
2016-07-06T11:54:21.395Z,24.34
2016-07-06T11:55:20.797Z,24.47
2016-07-06T11:56:20.181Z,24.43
2016-07-06T11:57:20.194Z,24.46
2016-07-06T11:58:20.809Z,24.45
2016-07-06T11:59:21.431Z,24.57
2016-07-06T12:00:20.821Z,24.55
2016-07-06T12:01:20.219Z,24.52
2016-07-06T12:02:20.836Z,24.55
2016-07-06T12:03:21.189Z,24.5
2016-07-06T12:04:20.853Z,24.55
2016-07-06T12:05:20.856Z,24.47
2016-07-06T12:06:20.877Z,24.5
2016-07-06T12:07:20.963Z,24.52
2016-07-06T12:08:20.885Z,24.57
2016-07-06T12:09:20.889Z,24.57
2016-07-06T12:10:20.934Z,24.55
2016-07-06T12:11:21.507Z,24.53
2016-07-06T12:12:21.643Z,24.49
2016-07-06T12:13:21.527Z,24.52
2016-07-06T12:14:21.465Z,24.5
2016-07-06T12:15:21.538Z,24.55
2016-07-06T12:16:21.545Z,24.5
2016-07-06T12:17:20.942Z,24.5
2016-07-06T12:18:21.558Z,24.49
2016-07-06T12:19:20.963Z,24.5
2016-07-06T12:20:20.963Z,24.53
2016-07-06T12:21:21.583Z,24.58
2016-07-06T12:22:21.582Z,24.55
2016-07-06T12:23:20.358Z,24.57
2016-07-06T12:24:20.367Z,24.5
2016-07-06T12:25:22.249Z,24.58
2016-07-06T12:26:20.392Z,24.5
2016-07-06T12:27:21.008Z,24.6
2016-07-06T12:28:21.637Z,24.53
2016-07-06T12:29:21.630Z,24.5
2016-07-06T12:30:21.650Z,24.45
2016-07-06T12:31:21.645Z,24.49
2016-07-06T12:32:21.040Z,24.5
2016-07-06T12:33:21.058Z,24.53
2016-07-06T12:34:22.035Z,24.47
2016-07-06T12:35:21.671Z,24.5
2016-07-06T12:36:21.902Z,24.5
2016-07-06T12:37:21.689Z,24.5
2016-07-06T12:38:20.453Z,24.49
2016-07-06T12:39:21.700Z,24.5
2016-07-06T12:40:21.714Z,24.55
2016-07-06T12:41:20.492Z,24.47
2016-07-06T12:42:21.113Z,24.55
2016-07-06T12:43:21.715Z,24.53
2016-07-06T12:44:20.507Z,24.49
2016-07-06T12:45:21.132Z,24.55
2016-07-06T12:46:21.751Z,24.52
2016-07-06T12:47:22.749Z,24.53
2016-07-06T12:48:21.751Z,24.5
2016-07-06T12:49:21.140Z,24.47
2016-07-06T12:50:21.148Z,24.52
2016-07-06T12:51:21.780Z,24.55
2016-07-06T12:52:20.558Z,24.5
2016-07-06T12:53:20.555Z,24.47
2016-07-06T12:54:21.186Z,24.5
2016-07-06T12:55:20.575Z,24.5
2016-07-06T12:56:21.195Z,24.52